sensor_id;sensor_type;location;lat;lon;timestamp;temperature;humidity
33811;DHT22;20119;48.334;16.206;2023-06-14T00:00:55;10.40;99.90
33811;DHT22;20119;48.334;16.206;2023-06-14T00:03:24;10.30;99.90
33811;DHT22;20119;48.334;16.206;2023-06-14T00:05:51;10.30;99.90
33811;DHT22;20119;48.334;16.206;2023-06-14T00:08:19;10.30;99.90
33811;DHT22;20119;48.334;16.206;2023-06-14T00:10:48;10.30;99.90
33811;DHT22;20119;48.334;16.206;2023-06-14T00:13:16;10.20;99.90
33811;DHT22;20119;48.334;16.206;2023-06-14T00:15:43;10.10;99.90
33811;DHT22;20119;48.334;16.206;2023-06-14T00:18:10;10.20;99.90
33811;DHT22;20119;48.334;16.206;2023-06-14T00:20:39;10.20;99.90
33811;DHT22;20119;48.334;16.206;2023-06-14T00:23:08;10.10;99.90
33811;DHT22;20119;48.334;16.206;2023-06-14T00:25:36;10.10;99.90
33811;DHT22;20119;48.334;16.206;2023-06-14T00:28:03;10.20;99.90
33811;DHT22;20119;48.334;16.206;2023-06-14T00:30:31;10.30;99.90
33811;DHT22;20119;48.334;16.206;2023-06-14T00:32:58;10.40;99.90
33811;DHT22;20119;48.334;16.206;2023-06-14T00:35:25;10.30;99.90
33811;DHT22;20119;48.334;16.206;2023-06-14T00:37:54;10.30;99.90
33811;DHT22;20119;48.334;16.206;2023-06-14T00:40:21;10.30;99.90
33811;DHT22;20119;48.334;16.206;2023-06-14T00:42:48;10.30;99.90
33811;DHT22;20119;48.334;16.206;2023-06-14T00:45:15;10.20;99.90
33811;DHT22;20119;48.334;16.206;2023-06-14T00:47:43;10.10;99.90
33811;DHT22;20119;48.334;16.206;2023-06-14T00:50:10;10.10;99.90
33811;DHT22;20119;48.334;16.206;2023-06-14T00:52:37;10.10;99.90
33811;DHT22;20119;48.334;16.206;2023-06-14T00:55:06;10.00;99.90
33811;DHT22;20119;48.334;16.206;2023-06-14T00:57:33;10.10;99.90
33811;DHT22;20119;48.334;16.206;2023-06-14T01:00:03;10.00;99.90
33811;DHT22;20119;48.334;16.206;2023-06-14T01:02:30;10.00;99.90
33811;DHT22;20119;48.334;16.206;2023-06-14T01:04:57;10.00;99.90
33811;DHT22;20119;48.334;16.206;2023-06-14T01:07:25;10.00;99.90
33811;DHT22;20119;48.334;16.206;2023-06-14T01:10:12;9.90;99.90
33811;DHT22;20119;48.334;16.206;2023-06-14T01:12:44;9.90;99.90
33811;DHT22;20119;48.334;16.206;2023-06-14T01:15:15;9.80;99.90
33811;DHT22;20119;48.334;16.206;2023-06-14T01:17:42;9.70;99.90
33811;DHT22;20119;48.334;16.206;2023-06-14T01:20:11;9.80;99.90
33811;DHT22;20119;48.334;16.206;2023-06-14T01:22:47;9.80;99.90
33811;DHT22;20119;48.334;16.206;2023-06-14T01:25:14;9.80;99.90
33811;DHT22;20119;48.334;16.206;2023-06-14T01:27:42;10.00;99.90
33811;DHT22;20119;48.334;16.206;2023-06-14T01:30:09;10.10;99.90
33811;DHT22;20119;48.334;16.206;2023-06-14T01:32:36;10.00;99.90
33811;DHT22;20119;48.334;16.206;2023-06-14T01:35:06;9.90;99.90
33811;DHT22;20119;48.334;16.206;2023-06-14T01:37:33;9.90;99.90
33811;DHT22;20119;48.334;16.206;2023-06-14T01:40:02;9.90;99.90
33811;DHT22;20119;48.334;16.206;2023-06-14T01:42:32;10.00;99.90
33811;DHT22;20119;48.334;16.206;2023-06-14T01:45:02;10.00;99.90
33811;DHT22;20119;48.334;16.206;2023-06-14T01:47:29;10.00;99.90
33811;DHT22;20119;48.334;16.206;2023-06-14T01:49:57;9.90;99.90
33811;DHT22;20119;48.334;16.206;2023-06-14T01:52:25;9.80;99.90
33811;DHT22;20119;48.334;16.206;2023-06-14T01:54:53;9.70;99.90
33811;DHT22;20119;48.334;16.206;2023-06-14T01:57:23;9.80;99.90
33811;DHT22;20119;48.334;16.206;2023-06-14T01:59:51;9.80;99.90
33811;DHT22;20119;48.334;16.206;2023-06-14T02:02:20;9.70;99.90
33811;DHT22;20119;48.334;16.206;2023-06-14T02:04:48;9.80;99.90
33811;DHT22;20119;48.334;16.206;2023-06-14T02:07:15;9.80;99.90
33811;DHT22;20119;48.334;16.206;2023-06-14T02:09:43;9.60;99.90
33811;DHT22;20119;48.334;16.206;2023-06-14T02:12:10;9.60;99.90
33811;DHT22;20119;48.334;16.206;2023-06-14T02:14:39;9.70;99.90
33811;DHT22;20119;48.334;16.206;2023-06-14T02:17:05;9.80;99.90
33811;DHT22;20119;48.334;16.206;2023-06-14T02:19:33;9.80;99.90
33811;DHT22;20119;48.334;16.206;2023-06-14T02:22:01;9.80;99.90
33811;DHT22;20119;48.334;16.206;2023-06-14T02:24:28;9.70;99.90
33811;DHT22;20119;48.334;16.206;2023-06-14T02:26:55;9.70;99.90
33811;DHT22;20119;48.334;16.206;2023-06-14T02:29:22;9.70;99.90
33811;DHT22;20119;48.334;16.206;2023-06-14T02:31:51;9.80;99.90
33811;DHT22;20119;48.334;16.206;2023-06-14T02:34:18;9.80;99.90
33811;DHT22;20119;48.334;16.206;2023-06-14T02:36:46;9.80;99.90
33811;DHT22;20119;48.334;16.206;2023-06-14T02:39:13;9.80;99.90
33811;DHT22;20119;48.334;16.206;2023-06-14T02:41:40;9.90;99.90
33811;DHT22;20119;48.334;16.206;2023-06-14T02:44:09;10.00;99.90
33811;DHT22;20119;48.334;16.206;2023-06-14T02:46:37;10.00;99.90
33811;DHT22;20119;48.334;16.206;2023-06-14T02:49:06;10.10;99.90
33811;DHT22;20119;48.334;16.206;2023-06-14T02:51:33;10.10;99.90
33811;DHT22;20119;48.334;16.206;2023-06-14T02:54:00;10.00;99.90
33811;DHT22;20119;48.334;16.206;2023-06-14T02:56:27;10.00;99.90
33811;DHT22;20119;48.334;16.206;2023-06-14T02:59:11;10.00;99.90
33811;DHT22;20119;48.334;16.206;2023-06-14T03:01:39;10.10;99.90
33811;DHT22;20119;48.334;16.206;2023-06-14T03:04:08;10.10;99.90
33811;DHT22;20119;48.334;16.206;2023-06-14T03:06:38;10.10;99.90
33811;DHT22;20119;48.334;16.206;2023-06-14T03:09:06;10.00;99.90
33811;DHT22;20119;48.334;16.206;2023-06-14T03:11:34;10.00;99.90
33811;DHT22;20119;48.334;16.206;2023-06-14T03:14:02;9.90;99.90
33811;DHT22;20119;48.334;16.206;2023-06-14T03:16:30;9.90;99.90
33811;DHT22;20119;48.334;16.206;2023-06-14T03:18:57;9.90;99.90
33811;DHT22;20119;48.334;16.206;2023-06-14T03:21:25;9.90;99.90
33811;DHT22;20119;48.334;16.206;2023-06-14T03:23:53;9.90;99.90
33811;DHT22;20119;48.334;16.206;2023-06-14T03:26:20;9.80;99.90
33811;DHT22;20119;48.334;16.206;2023-06-14T03:28:48;9.90;99.90
33811;DHT22;20119;48.334;16.206;2023-06-14T03:31:15;9.90;99.90
33811;DHT22;20119;48.334;16.206;2023-06-14T03:33:42;9.90;99.90
33811;DHT22;20119;48.334;16.206;2023-06-14T03:36:09;9.90;99.90
33811;DHT22;20119;48.334;16.206;2023-06-14T03:38:38;10.00;99.90
33811;DHT22;20119;48.334;16.206;2023-06-14T03:41:05;10.10;99.90
33811;DHT22;20119;48.334;16.206;2023-06-14T03:43:32;10.30;99.90
33811;DHT22;20119;48.334;16.206;2023-06-14T03:46:00;10.30;99.90
33811;DHT22;20119;48.334;16.206;2023-06-14T03:48:27;10.40;99.90
33811;DHT22;20119;48.334;16.206;2023-06-14T03:50:54;10.80;99.90
33811;DHT22;20119;48.334;16.206;2023-06-14T03:53:22;11.30;99.90
33811;DHT22;20119;48.334;16.206;2023-06-14T03:55:51;11.60;99.90
33811;DHT22;20119;48.334;16.206;2023-06-14T03:58:19;11.90;99.90
33811;DHT22;20119;48.334;16.206;2023-06-14T04:00:46;12.00;99.90
33811;DHT22;20119;48.334;16.206;2023-06-14T04:03:13;12.10;99.90
33811;DHT22;20119;48.334;16.206;2023-06-14T04:05:41;12.30;99.90
33811;DHT22;20119;48.334;16.206;2023-06-14T04:08:09;12.40;99.90
33811;DHT22;20119;48.334;16.206;2023-06-14T04:10:40;12.40;99.90
33811;DHT22;20119;48.334;16.206;2023-06-14T04:13:09;12.50;99.90
33811;DHT22;20119;48.334;16.206;2023-06-14T04:15:38;12.40;99.90
33811;DHT22;20119;48.334;16.206;2023-06-14T04:18:07;12.40;99.90
33811;DHT22;20119;48.334;16.206;2023-06-14T04:20:35;12.40;99.90
33811;DHT22;20119;48.334;16.206;2023-06-14T04:23:10;12.60;99.90
33811;DHT22;20119;48.334;16.206;2023-06-14T04:25:38;12.60;99.90
33811;DHT22;20119;48.334;16.206;2023-06-14T04:28:05;12.80;99.90
33811;DHT22;20119;48.334;16.206;2023-06-14T04:30:36;12.70;99.90
33811;DHT22;20119;48.334;16.206;2023-06-14T04:33:06;13.00;99.90
33811;DHT22;20119;48.334;16.206;2023-06-14T04:35:33;13.40;99.90
33811;DHT22;20119;48.334;16.206;2023-06-14T04:38:02;13.70;99.90
33811;DHT22;20119;48.334;16.206;2023-06-14T04:40:30;13.70;99.90
33811;DHT22;20119;48.334;16.206;2023-06-14T04:42:59;13.70;99.90
33811;DHT22;20119;48.334;16.206;2023-06-14T04:45:26;13.70;99.90
33811;DHT22;20119;48.334;16.206;2023-06-14T04:48:00;13.70;99.90
33811;DHT22;20119;48.334;16.206;2023-06-14T04:50:27;13.90;99.90
33811;DHT22;20119;48.334;16.206;2023-06-14T04:52:55;13.90;99.90
33811;DHT22;20119;48.334;16.206;2023-06-14T04:55:23;13.60;99.90
33811;DHT22;20119;48.334;16.206;2023-06-14T04:57:50;13.80;99.90
33811;DHT22;20119;48.334;16.206;2023-06-14T05:00:20;13.80;99.90
33811;DHT22;20119;48.334;16.206;2023-06-14T05:02:48;14.30;99.90
33811;DHT22;20119;48.334;16.206;2023-06-14T05:05:20;14.90;99.90
33811;DHT22;20119;48.334;16.206;2023-06-14T05:07:48;15.70;99.90
33811;DHT22;20119;48.334;16.206;2023-06-14T05:10:16;16.90;99.90
33811;DHT22;20119;48.334;16.206;2023-06-14T05:12:43;17.00;99.90
33811;DHT22;20119;48.334;16.206;2023-06-14T05:15:11;17.30;99.90
33811;DHT22;20119;48.334;16.206;2023-06-14T05:17:38;17.30;99.90
33811;DHT22;20119;48.334;16.206;2023-06-14T05:20:06;17.70;99.90
33811;DHT22;20119;48.334;16.206;2023-06-14T05:22:35;17.70;99.90
33811;DHT22;20119;48.334;16.206;2023-06-14T05:25:02;17.50;99.90
33811;DHT22;20119;48.334;16.206;2023-06-14T05:27:29;18.50;99.90
33811;DHT22;20119;48.334;16.206;2023-06-14T05:29:57;18.20;99.90
33811;DHT22;20119;48.334;16.206;2023-06-14T05:32:26;18.50;99.90
33811;DHT22;20119;48.334;16.206;2023-06-14T05:34:53;18.10;99.90
33811;DHT22;20119;48.334;16.206;2023-06-14T05:37:22;18.50;99.90
33811;DHT22;20119;48.334;16.206;2023-06-14T05:39:54;18.30;99.90
33811;DHT22;20119;48.334;16.206;2023-06-14T05:42:22;18.40;99.90
33811;DHT22;20119;48.334;16.206;2023-06-14T05:44:48;18.90;99.90
33811;DHT22;20119;48.334;16.206;2023-06-14T05:47:15;20.00;99.90
33811;DHT22;20119;48.334;16.206;2023-06-14T05:49:42;20.20;99.90
33811;DHT22;20119;48.334;16.206;2023-06-14T05:52:09;20.70;99.90
33811;DHT22;20119;48.334;16.206;2023-06-14T05:54:38;21.20;99.90
33811;DHT22;20119;48.334;16.206;2023-06-14T05:57:06;21.30;99.90
33811;DHT22;20119;48.334;16.206;2023-06-14T05:59:33;19.70;99.90
33811;DHT22;20119;48.334;16.206;2023-06-14T06:02:00;19.50;99.90
33811;DHT22;20119;48.334;16.206;2023-06-14T06:04:27;20.40;99.90
33811;DHT22;20119;48.334;16.206;2023-06-14T06:06:54;20.80;99.90
33811;DHT22;20119;48.334;16.206;2023-06-14T06:09:21;21.20;99.90
33811;DHT22;20119;48.334;16.206;2023-06-14T06:11:48;21.10;99.90
33811;DHT22;20119;48.334;16.206;2023-06-14T06:14:17;21.40;99.90
33811;DHT22;20119;48.334;16.206;2023-06-14T06:16:44;21.40;99.90
33811;DHT22;20119;48.334;16.206;2023-06-14T06:19:11;22.20;99.90
33811;DHT22;20119;48.334;16.206;2023-06-14T06:21:38;21.70;99.90
33811;DHT22;20119;48.334;16.206;2023-06-14T06:24:08;21.60;99.90
33811;DHT22;20119;48.334;16.206;2023-06-14T06:26:36;21.40;99.90
33811;DHT22;20119;48.334;16.206;2023-06-14T06:29:04;21.20;99.90
33811;DHT22;20119;48.334;16.206;2023-06-14T06:31:32;22.10;99.90
33811;DHT22;20119;48.334;16.206;2023-06-14T06:33:59;20.60;99.90
33811;DHT22;20119;48.334;16.206;2023-06-14T06:36:27;20.00;99.90
33811;DHT22;20119;48.334;16.206;2023-06-14T06:38:54;20.20;99.90
33811;DHT22;20119;48.334;16.206;2023-06-14T06:41:21;21.50;99.90
33811;DHT22;20119;48.334;16.206;2023-06-14T06:43:48;21.50;99.90
33811;DHT22;20119;48.334;16.206;2023-06-14T06:46:15;22.10;99.90
33811;DHT22;20119;48.334;16.206;2023-06-14T06:48:45;22.10;99.90
33811;DHT22;20119;48.334;16.206;2023-06-14T06:51:11;22.70;99.90
33811;DHT22;20119;48.334;16.206;2023-06-14T06:53:39;23.10;99.90
33811;DHT22;20119;48.334;16.206;2023-06-14T06:56:06;23.20;99.90
33811;DHT22;20119;48.334;16.206;2023-06-14T06:58:33;22.80;99.90
33811;DHT22;20119;48.334;16.206;2023-06-14T07:01:00;22.90;99.90
33811;DHT22;20119;48.334;16.206;2023-06-14T07:03:28;22.60;99.90
33811;DHT22;20119;48.334;16.206;2023-06-14T07:05:57;22.60;99.90
33811;DHT22;20119;48.334;16.206;2023-06-14T07:08:25;21.70;99.90
33811;DHT22;20119;48.334;16.206;2023-06-14T07:10:52;21.60;99.90
33811;DHT22;20119;48.334;16.206;2023-06-14T07:13:19;22.70;99.90
33811;DHT22;20119;48.334;16.206;2023-06-14T07:15:46;22.90;99.90
33811;DHT22;20119;48.334;16.206;2023-06-14T07:18:14;22.90;99.90
33811;DHT22;20119;48.334;16.206;2023-06-14T07:20:41;22.50;99.90
33811;DHT22;20119;48.334;16.206;2023-06-14T07:23:09;22.50;99.90
33811;DHT22;20119;48.334;16.206;2023-06-14T07:25:36;22.70;99.90
33811;DHT22;20119;48.334;16.206;2023-06-14T07:28:03;23.50;99.90
33811;DHT22;20119;48.334;16.206;2023-06-14T07:30:30;23.60;99.90
33811;DHT22;20119;48.334;16.206;2023-06-14T07:32:58;23.90;99.90
33811;DHT22;20119;48.334;16.206;2023-06-14T07:35:25;22.60;99.90
33811;DHT22;20119;48.334;16.206;2023-06-14T07:37:52;23.00;99.90
33811;DHT22;20119;48.334;16.206;2023-06-14T07:40:21;23.50;99.90
33811;DHT22;20119;48.334;16.206;2023-06-14T07:42:48;24.10;99.90
33811;DHT22;20119;48.334;16.206;2023-06-14T07:45:16;23.80;99.90
33811;DHT22;20119;48.334;16.206;2023-06-14T07:47:43;22.50;99.90
33811;DHT22;20119;48.334;16.206;2023-06-14T07:50:11;23.00;99.90
33811;DHT22;20119;48.334;16.206;2023-06-14T07:52:38;23.50;99.90
33811;DHT22;20119;48.334;16.206;2023-06-14T07:55:05;23.50;99.90
33811;DHT22;20119;48.334;16.206;2023-06-14T07:57:34;23.20;99.90
33811;DHT22;20119;48.334;16.206;2023-06-14T08:00:01;24.20;99.90
33811;DHT22;20119;48.334;16.206;2023-06-14T08:02:31;23.80;99.90
33811;DHT22;20119;48.334;16.206;2023-06-14T08:04:58;23.20;99.90
33811;DHT22;20119;48.334;16.206;2023-06-14T08:07:25;23.40;99.90
33811;DHT22;20119;48.334;16.206;2023-06-14T08:09:53;23.10;99.90
33811;DHT22;20119;48.334;16.206;2023-06-14T08:12:20;23.30;99.90
33811;DHT22;20119;48.334;16.206;2023-06-14T08:14:49;24.00;99.90
33811;DHT22;20119;48.334;16.206;2023-06-14T08:17:17;24.40;99.90
33811;DHT22;20119;48.334;16.206;2023-06-14T08:19:43;24.30;99.90
33811;DHT22;20119;48.334;16.206;2023-06-14T08:22:11;25.00;99.90
33811;DHT22;20119;48.334;16.206;2023-06-14T08:24:38;24.30;99.90
33811;DHT22;20119;48.334;16.206;2023-06-14T08:27:06;23.70;99.90
33811;DHT22;20119;48.334;16.206;2023-06-14T08:29:33;24.40;99.90
33811;DHT22;20119;48.334;16.206;2023-06-14T08:32:02;24.10;99.90
33811;DHT22;20119;48.334;16.206;2023-06-14T08:34:28;24.20;99.90
33811;DHT22;20119;48.334;16.206;2023-06-14T08:36:56;24.50;99.90
33811;DHT22;20119;48.334;16.206;2023-06-14T08:39:23;25.40;99.90
33811;DHT22;20119;48.334;16.206;2023-06-14T08:41:50;24.40;99.90
33811;DHT22;20119;48.334;16.206;2023-06-14T08:44:18;24.70;99.90
33811;DHT22;20119;48.334;16.206;2023-06-14T08:46:47;25.30;99.90
33811;DHT22;20119;48.334;16.206;2023-06-14T08:49:17;23.90;99.90
33811;DHT22;20119;48.334;16.206;2023-06-14T08:51:45;24.00;99.90
33811;DHT22;20119;48.334;16.206;2023-06-14T08:54:12;24.60;99.90
33811;DHT22;20119;48.334;16.206;2023-06-14T08:56:41;24.20;99.90
33811;DHT22;20119;48.334;16.206;2023-06-14T08:59:09;24.40;99.90
33811;DHT22;20119;48.334;16.206;2023-06-14T09:01:36;24.70;99.90
33811;DHT22;20119;48.334;16.206;2023-06-14T09:04:05;25.30;99.60
33811;DHT22;20119;48.334;16.206;2023-06-14T09:06:35;25.30;99.90
33811;DHT22;20119;48.334;16.206;2023-06-14T09:09:02;24.90;99.90
33811;DHT22;20119;48.334;16.206;2023-06-14T09:11:30;25.80;99.90
33811;DHT22;20119;48.334;16.206;2023-06-14T09:13:57;25.60;99.20
33811;DHT22;20119;48.334;16.206;2023-06-14T09:16:25;25.00;98.50
33811;DHT22;20119;48.334;16.206;2023-06-14T09:18:53;25.20;99.00
33811;DHT22;20119;48.334;16.206;2023-06-14T09:21:20;25.60;99.90
33811;DHT22;20119;48.334;16.206;2023-06-14T09:23:48;25.80;97.20
33811;DHT22;20119;48.334;16.206;2023-06-14T09:26:16;25.60;99.40
33811;DHT22;20119;48.334;16.206;2023-06-14T09:28:43;24.50;99.70
33811;DHT22;20119;48.334;16.206;2023-06-14T09:31:11;24.20;99.90
33811;DHT22;20119;48.334;16.206;2023-06-14T09:33:39;24.70;99.90
33811;DHT22;20119;48.334;16.206;2023-06-14T09:36:09;25.30;98.50
33811;DHT22;20119;48.334;16.206;2023-06-14T09:38:37;25.40;99.40
33811;DHT22;20119;48.334;16.206;2023-06-14T09:41:08;24.80;99.60
33811;DHT22;20119;48.334;16.206;2023-06-14T09:43:34;24.70;99.90
33811;DHT22;20119;48.334;16.206;2023-06-14T09:46:03;24.40;99.90
33811;DHT22;20119;48.334;16.206;2023-06-14T09:48:31;24.60;97.90
33811;DHT22;20119;48.334;16.206;2023-06-14T09:50:59;24.70;99.90
33811;DHT22;20119;48.334;16.206;2023-06-14T09:53:27;24.30;99.90
33811;DHT22;20119;48.334;16.206;2023-06-14T09:55:55;24.40;99.90
33811;DHT22;20119;48.334;16.206;2023-06-14T09:58:26;23.90;99.10
33811;DHT22;20119;48.334;16.206;2023-06-14T10:00:55;23.70;98.50
33811;DHT22;20119;48.334;16.206;2023-06-14T10:03:24;23.70;98.50
33811;DHT22;20119;48.334;16.206;2023-06-14T10:05:52;23.50;97.50
33811;DHT22;20119;48.334;16.206;2023-06-14T10:08:22;23.40;98.00
33811;DHT22;20119;48.334;16.206;2023-06-14T10:10:53;23.60;99.40
33811;DHT22;20119;48.334;16.206;2023-06-14T10:13:20;23.60;99.10
33811;DHT22;20119;48.334;16.206;2023-06-14T10:15:52;23.50;99.90
33811;DHT22;20119;48.334;16.206;2023-06-14T10:18:21;23.40;99.80
33811;DHT22;20119;48.334;16.206;2023-06-14T10:20:52;23.60;97.80
33811;DHT22;20119;48.334;16.206;2023-06-14T10:23:19;23.40;99.10
33811;DHT22;20119;48.334;16.206;2023-06-14T10:25:49;22.70;99.60
33811;DHT22;20119;48.334;16.206;2023-06-14T10:28:16;22.60;99.90
33811;DHT22;20119;48.334;16.206;2023-06-14T10:33:49;22.80;99.90
33811;DHT22;20119;48.334;16.206;2023-06-14T10:36:24;23.10;99.90
33811;DHT22;20119;48.334;16.206;2023-06-14T10:39:04;22.90;99.90
33811;DHT22;20119;48.334;16.206;2023-06-14T10:41:31;22.60;99.30
33811;DHT22;20119;48.334;16.206;2023-06-14T10:46:45;22.80;99.80
33811;DHT22;20119;48.334;16.206;2023-06-14T10:49:14;22.70;99.50
33811;DHT22;20119;48.334;16.206;2023-06-14T10:51:42;22.30;98.40
33811;DHT22;20119;48.334;16.206;2023-06-14T10:54:12;22.20;98.40
33811;DHT22;20119;48.334;16.206;2023-06-14T10:56:41;22.40;99.50
33811;DHT22;20119;48.334;16.206;2023-06-14T10:59:12;22.90;99.90
33811;DHT22;20119;48.334;16.206;2023-06-14T11:01:40;22.70;98.20
33811;DHT22;20119;48.334;16.206;2023-06-14T11:04:09;23.10;99.90
33811;DHT22;20119;48.334;16.206;2023-06-14T11:06:46;23.20;99.90
33811;DHT22;20119;48.334;16.206;2023-06-14T11:09:27;23.10;99.90
33811;DHT22;20119;48.334;16.206;2023-06-14T11:11:59;23.00;99.30
33811;DHT22;20119;48.334;16.206;2023-06-14T11:14:29;23.10;99.00
33811;DHT22;20119;48.334;16.206;2023-06-14T11:16:56;22.50;98.80
33811;DHT22;20119;48.334;16.206;2023-06-14T11:19:23;21.70;99.90
33811;DHT22;20119;48.334;16.206;2023-06-14T11:21:52;21.70;99.90
33811;DHT22;20119;48.334;16.206;2023-06-14T11:24:19;22.10;99.90
33811;DHT22;20119;48.334;16.206;2023-06-14T11:26:46;22.20;99.90
33811;DHT22;20119;48.334;16.206;2023-06-14T11:29:15;22.10;99.90
33811;DHT22;20119;48.334;16.206;2023-06-14T11:31:43;22.80;99.90
33811;DHT22;20119;48.334;16.206;2023-06-14T11:34:11;22.70;99.00
33811;DHT22;20119;48.334;16.206;2023-06-14T11:36:38;22.70;99.90
33811;DHT22;20119;48.334;16.206;2023-06-14T11:39:07;22.90;99.10
33811;DHT22;20119;48.334;16.206;2023-06-14T11:41:36;23.00;98.10
33811;DHT22;20119;48.334;16.206;2023-06-14T11:44:04;23.10;99.20
33811;DHT22;20119;48.334;16.206;2023-06-14T11:46:31;23.30;99.00
33811;DHT22;20119;48.334;16.206;2023-06-14T11:48:58;22.90;99.40
33811;DHT22;20119;48.334;16.206;2023-06-14T11:51:28;22.70;99.20
33811;DHT22;20119;48.334;16.206;2023-06-14T11:53:56;22.60;99.90
33811;DHT22;20119;48.334;16.206;2023-06-14T11:56:25;22.30;99.90
33811;DHT22;20119;48.334;16.206;2023-06-14T11:58:52;22.40;99.90
33811;DHT22;20119;48.334;16.206;2023-06-14T12:01:21;22.90;99.90
33811;DHT22;20119;48.334;16.206;2023-06-14T12:03:48;23.20;99.90
33811;DHT22;20119;48.334;16.206;2023-06-14T12:06:24;23.60;99.90
33811;DHT22;20119;48.334;16.206;2023-06-14T12:08:54;23.30;99.20
33811;DHT22;20119;48.334;16.206;2023-06-14T12:11:22;22.90;99.90
33811;DHT22;20119;48.334;16.206;2023-06-14T12:13:50;23.00;99.70
33811;DHT22;20119;48.334;16.206;2023-06-14T12:16:17;22.80;99.90
33811;DHT22;20119;48.334;16.206;2023-06-14T12:18:45;22.30;99.80
33811;DHT22;20119;48.334;16.206;2023-06-14T12:21:13;22.40;99.90
33811;DHT22;20119;48.334;16.206;2023-06-14T12:23:43;22.80;99.90
33811;DHT22;20119;48.334;16.206;2023-06-14T12:26:14;22.70;99.90
33811;DHT22;20119;48.334;16.206;2023-06-14T12:28:42;22.80;99.90
33811;DHT22;20119;48.334;16.206;2023-06-14T12:31:12;22.90;99.90
33811;DHT22;20119;48.334;16.206;2023-06-14T12:33:40;22.80;99.90
33811;DHT22;20119;48.334;16.206;2023-06-14T12:36:08;22.90;99.90
33811;DHT22;20119;48.334;16.206;2023-06-14T12:38:35;22.90;99.90
33811;DHT22;20119;48.334;16.206;2023-06-14T12:41:03;22.50;99.90
33811;DHT22;20119;48.334;16.206;2023-06-14T12:43:32;22.70;99.90
33811;DHT22;20119;48.334;16.206;2023-06-14T12:46:00;22.80;99.30
33811;DHT22;20119;48.334;16.206;2023-06-14T12:48:28;23.00;99.90
33811;DHT22;20119;48.334;16.206;2023-06-14T12:50:56;22.80;99.10
33811;DHT22;20119;48.334;16.206;2023-06-14T12:53:23;22.70;99.90
33811;DHT22;20119;48.334;16.206;2023-06-14T12:55:50;22.90;99.50
33811;DHT22;20119;48.334;16.206;2023-06-14T12:58:17;22.90;99.70
33811;DHT22;20119;48.334;16.206;2023-06-14T13:00:45;23.30;99.90
33811;DHT22;20119;48.334;16.206;2023-06-14T13:03:30;23.20;99.70
33811;DHT22;20119;48.334;16.206;2023-06-14T13:05:58;23.40;99.80
33811;DHT22;20119;48.334;16.206;2023-06-14T13:08:27;23.20;99.70
33811;DHT22;20119;48.334;16.206;2023-06-14T13:10:55;23.30;99.90
33811;DHT22;20119;48.334;16.206;2023-06-14T13:13:21;23.20;98.90
33811;DHT22;20119;48.334;16.206;2023-06-14T13:15:48;23.00;99.90
33811;DHT22;20119;48.334;16.206;2023-06-14T13:18:16;23.00;99.90
33811;DHT22;20119;48.334;16.206;2023-06-14T13:20:46;22.90;99.90
33811;DHT22;20119;48.334;16.206;2023-06-14T13:23:13;22.90;99.90
33811;DHT22;20119;48.334;16.206;2023-06-14T13:25:40;23.40;99.90
33811;DHT22;20119;48.334;16.206;2023-06-14T13:28:09;23.60;99.00
33811;DHT22;20119;48.334;16.206;2023-06-14T13:30:37;23.50;98.30
33811;DHT22;20119;48.334;16.206;2023-06-14T13:33:04;23.40;98.10
33811;DHT22;20119;48.334;16.206;2023-06-14T13:35:31;23.00;98.00
33811;DHT22;20119;48.334;16.206;2023-06-14T13:38:01;23.30;98.70
33811;DHT22;20119;48.334;16.206;2023-06-14T13:40:28;23.60;97.80
33811;DHT22;20119;48.334;16.206;2023-06-14T13:42:55;23.10;97.90
33811;DHT22;20119;48.334;16.206;2023-06-14T13:45:23;23.30;98.20
33811;DHT22;20119;48.334;16.206;2023-06-14T13:47:50;23.50;98.40
33811;DHT22;20119;48.334;16.206;2023-06-14T13:50:17;23.70;97.90
33811;DHT22;20119;48.334;16.206;2023-06-14T13:52:44;23.90;98.60
33811;DHT22;20119;48.334;16.206;2023-06-14T13:55:13;23.80;97.10
33811;DHT22;20119;48.334;16.206;2023-06-14T13:57:40;24.00;98.50
33811;DHT22;20119;48.334;16.206;2023-06-14T14:00:07;23.90;97.50
33811;DHT22;20119;48.334;16.206;2023-06-14T14:02:34;24.10;97.40
33811;DHT22;20119;48.334;16.206;2023-06-14T14:05:02;24.20;97.40
33811;DHT22;20119;48.334;16.206;2023-06-14T14:07:30;24.30;98.00
33811;DHT22;20119;48.334;16.206;2023-06-14T14:09:57;24.30;98.50
33811;DHT22;20119;48.334;16.206;2023-06-14T14:12:26;24.40;97.10
33811;DHT22;20119;48.334;16.206;2023-06-14T14:14:54;24.10;96.90
33811;DHT22;20119;48.334;16.206;2023-06-14T14:17:21;24.00;98.00
33811;DHT22;20119;48.334;16.206;2023-06-14T14:19:48;23.80;97.30
33811;DHT22;20119;48.334;16.206;2023-06-14T14:22:15;23.80;98.80
33811;DHT22;20119;48.334;16.206;2023-06-14T14:24:42;23.70;98.10
33811;DHT22;20119;48.334;16.206;2023-06-14T14:27:09;23.80;97.50
33811;DHT22;20119;48.334;16.206;2023-06-14T14:29:38;23.20;98.50
33811;DHT22;20119;48.334;16.206;2023-06-14T14:32:05;23.10;99.60
33811;DHT22;20119;48.334;16.206;2023-06-14T14:34:33;23.10;99.50
33811;DHT22;20119;48.334;16.206;2023-06-14T14:37:00;23.10;98.30
33811;DHT22;20119;48.334;16.206;2023-06-14T14:39:27;23.00;99.90
33811;DHT22;20119;48.334;16.206;2023-06-14T14:41:55;22.80;99.90
33811;DHT22;20119;48.334;16.206;2023-06-14T14:44:22;23.10;99.90
33811;DHT22;20119;48.334;16.206;2023-06-14T14:46:51;23.20;99.10
33811;DHT22;20119;48.334;16.206;2023-06-14T14:49:18;23.10;99.90
33811;DHT22;20119;48.334;16.206;2023-06-14T14:51:45;23.10;99.90
33811;DHT22;20119;48.334;16.206;2023-06-14T14:54:13;23.20;99.90
33811;DHT22;20119;48.334;16.206;2023-06-14T14:56:40;23.00;99.90
33811;DHT22;20119;48.334;16.206;2023-06-14T14:59:07;23.10;99.90
33811;DHT22;20119;48.334;16.206;2023-06-14T15:01:35;23.00;99.90
33811;DHT22;20119;48.334;16.206;2023-06-14T15:04:20;23.00;99.90
33811;DHT22;20119;48.334;16.206;2023-06-14T15:06:48;23.10;99.90
33811;DHT22;20119;48.334;16.206;2023-06-14T15:09:14;23.00;99.90
33811;DHT22;20119;48.334;16.206;2023-06-14T15:11:43;22.70;99.90
33811;DHT22;20119;48.334;16.206;2023-06-14T15:14:10;22.80;99.90
33811;DHT22;20119;48.334;16.206;2023-06-14T15:16:37;22.90;99.90
33811;DHT22;20119;48.334;16.206;2023-06-14T15:19:04;22.90;99.90
33811;DHT22;20119;48.334;16.206;2023-06-14T15:21:33;23.20;99.90
33811;DHT22;20119;48.334;16.206;2023-06-14T15:24:00;23.30;99.90
33811;DHT22;20119;48.334;16.206;2023-06-14T15:26:27;23.20;99.60
33811;DHT22;20119;48.334;16.206;2023-06-14T15:28:54;23.20;99.50